createdAt,value
2022-10-06T00:04:11.741Z,9.20
2022-10-06T00:09:14.328Z,9.19
2022-10-06T00:14:17.094Z,9.22
2022-10-06T00:19:19.743Z,9.23
2022-10-06T00:24:22.317Z,9.20
2022-10-06T00:29:24.998Z,9.18
2022-10-06T00:34:27.558Z,9.13
2022-10-06T00:39:30.201Z,9.03
2022-10-06T00:44:33.286Z,9.00
2022-10-06T00:49:38.138Z,8.97
2022-10-06T00:54:41.110Z,8.91
2022-10-06T00:59:43.777Z,8.83
2022-10-06T01:04:48.600Z,8.74
2022-10-06T01:09:51.242Z,8.66
2022-10-06T01:14:54.320Z,8.60
2022-10-06T01:20:15.475Z,8.51
2022-10-06T01:25:19.194Z,8.44
2022-10-06T01:30:26.908Z,8.37
2022-10-06T01:35:29.645Z,8.30
2022-10-06T01:40:32.397Z,8.23
2022-10-06T01:45:34.981Z,8.18
2022-10-06T01:50:37.649Z,8.14
2022-10-06T01:55:41.047Z,8.09
2022-10-06T02:00:43.886Z,8.08
2022-10-06T02:05:46.581Z,8.04
2022-10-06T02:10:49.159Z,7.99
2022-10-06T02:15:56.462Z,7.96
2022-10-06T02:20:59.611Z,7.95
2022-10-06T02:26:05.087Z,7.89
2022-10-06T02:31:09.056Z,7.83
2022-10-06T02:36:16.710Z,7.78
2022-10-06T02:41:19.419Z,7.77
2022-10-06T02:46:24.220Z,7.77
2022-10-06T02:51:27.020Z,7.72
2022-10-06T02:56:29.584Z,7.71
2022-10-06T03:01:32.888Z,7.71
2022-10-06T03:06:35.529Z,7.66
2022-10-06T03:11:40.773Z,7.59
2022-10-06T03:16:43.788Z,7.58
2022-10-06T03:21:46.447Z,7.52
2022-10-06T03:26:49.140Z,7.49
2022-10-06T03:31:51.776Z,7.44
2022-10-06T03:36:54.350Z,7.41
2022-10-06T03:41:56.927Z,7.35
2022-10-06T03:46:59.603Z,7.32
2022-10-06T03:52:02.272Z,7.23
2022-10-06T03:57:04.854Z,7.19
2022-10-06T04:02:07.551Z,7.17
2022-10-06T04:07:10.209Z,7.12
2022-10-06T04:12:12.741Z,7.11
2022-10-06T04:17:15.423Z,7.09
2022-10-06T04:22:18.002Z,7.08
2022-10-06T04:27:29.515Z,7.04
2022-10-06T04:32:32.419Z,7.02
2022-10-06T04:37:35.086Z,7.00
2022-10-06T04:42:37.699Z,6.97
2022-10-06T04:47:40.992Z,6.95
2022-10-06T04:52:43.604Z,6.91
2022-10-06T04:57:46.207Z,6.90
2022-10-06T05:02:49.016Z,6.88
2022-10-06T05:07:52.783Z,6.89
2022-10-06T05:12:57.805Z,6.88
2022-10-06T05:18:00.414Z,6.90
2022-10-06T05:23:07.267Z,6.93
2022-10-06T05:28:09.964Z,7.00
2022-10-06T05:33:12.629Z,7.07
2022-10-06T05:38:15.310Z,7.17
2022-10-06T05:43:18.332Z,7.27
2022-10-06T05:48:21.222Z,7.41
2022-10-06T05:53:23.850Z,7.56
2022-10-06T05:58:27.052Z,7.71
2022-10-06T06:03:29.673Z,7.87
2022-10-06T06:08:32.748Z,8.02
2022-10-06T06:13:35.955Z,8.16
2022-10-06T06:18:41.413Z,8.29
2022-10-06T06:23:46.565Z,8.39
2022-10-06T06:28:51.097Z,8.50
2022-10-06T06:33:56.502Z,8.61
2022-10-06T06:38:59.191Z,8.69
2022-10-06T06:44:01.781Z,8.81
2022-10-06T06:49:05.984Z,8.91
2022-10-06T06:54:10.011Z,8.98
2022-10-06T06:59:13.330Z,9.08
2022-10-06T07:04:17.240Z,9.17
2022-10-06T07:09:20.902Z,9.25
2022-10-06T07:14:24.370Z,9.40
2022-10-06T07:19:45.599Z,9.61
2022-10-06T07:25:06.736Z,9.89
2022-10-06T07:30:12.029Z,10.19
2022-10-06T07:35:16.784Z,10.49
2022-10-06T07:40:19.593Z,10.78
2022-10-06T07:45:38.448Z,11.09
2022-10-06T07:50:42.583Z,11.37
2022-10-06T07:55:47.578Z,11.60
2022-10-06T08:00:52.840Z,11.83
2022-10-06T08:05:59.824Z,12.13
2022-10-06T08:11:02.833Z,12.38
2022-10-06T08:16:07.704Z,12.66
2022-10-06T08:21:15.854Z,12.94
2022-10-06T08:26:20.080Z,13.19
2022-10-06T08:31:23.588Z,13.31
2022-10-06T08:36:31.415Z,13.45
2022-10-06T08:41:48.495Z,13.64
2022-10-06T08:47:05.854Z,13.80
2022-10-06T08:52:31.030Z,14.03
2022-10-06T08:57:51.701Z,14.24
2022-10-06T09:02:55.069Z,14.53
2022-10-06T09:08:24.635Z,14.75
2022-10-06T09:13:33.465Z,15.03
2022-10-06T09:19:08.323Z,15.35
2022-10-06T09:24:30.248Z,15.65
2022-10-06T09:29:32.893Z,15.83
2022-10-06T09:34:36.041Z,16.02
2022-10-06T09:39:44.547Z,16.18
2022-10-06T09:44:50.249Z,16.25
2022-10-06T09:50:04.128Z,16.18
2022-10-06T09:55:19.128Z,16.19
2022-10-06T10:00:33.005Z,16.26
2022-10-06T10:05:38.298Z,16.38
2022-10-06T10:10:41.488Z,16.63
2022-10-06T10:15:54.788Z,16.81
2022-10-06T10:21:08.544Z,17.18
2022-10-06T10:27:08.537Z,17.34
2022-10-06T10:32:19.404Z,17.51
2022-10-06T10:37:29.896Z,17.75
2022-10-06T10:42:56.397Z,17.99
2022-10-06T10:48:07.029Z,18.18
2022-10-06T10:53:20.212Z,18.51
2022-10-06T10:58:37.617Z,18.81
2022-10-06T11:03:40.373Z,18.83
2022-10-06T11:08:49.570Z,19.00
2022-10-06T11:13:54.222Z,19.17
2022-10-06T11:19:03.175Z,19.17
2022-10-06T11:24:20.933Z,19.37
2022-10-06T11:29:36.293Z,19.58
2022-10-06T11:34:41.573Z,19.92
2022-10-06T11:40:15.063Z,20.27
2022-10-06T11:45:23.634Z,20.34
2022-10-06T11:50:36.676Z,20.35
2022-10-06T11:55:39.446Z,20.23
2022-10-06T12:00:45.184Z,20.08
2022-10-06T12:05:56.373Z,19.93
2022-10-06T12:10:59.349Z,19.84
2022-10-06T12:22:22.552Z,19.71
2022-10-06T12:27:27.172Z,19.69
2022-10-06T12:32:38.999Z,19.68
2022-10-06T12:37:42.471Z,19.68
2022-10-06T12:42:45.572Z,19.76
2022-10-06T12:47:49.008Z,19.84
2022-10-06T12:53:01.053Z,19.82
2022-10-06T12:58:04.245Z,19.78
2022-10-06T13:03:09.103Z,19.78
2022-10-06T13:08:25.078Z,19.68
2022-10-06T13:13:28.287Z,19.61
2022-10-06T13:18:32.929Z,19.49
2022-10-06T13:23:37.666Z,19.47
2022-10-06T13:28:43.240Z,19.47
2022-10-06T13:33:48.613Z,19.49
2022-10-06T13:38:51.459Z,19.54
2022-10-06T13:44:02.004Z,19.45
2022-10-06T13:49:19.874Z,19.33
2022-10-06T13:54:31.781Z,19.23
2022-10-06T13:59:37.230Z,19.21
2022-10-06T14:04:39.873Z,19.23
2022-10-06T14:09:43.197Z,19.28
2022-10-06T14:14:49.283Z,19.35
2022-10-06T14:19:52.059Z,19.41
2022-10-06T14:24:54.979Z,19.37
2022-10-06T14:29:57.893Z,19.34
2022-10-06T14:35:01.501Z,19.25
2022-10-06T14:40:05.937Z,19.16
2022-10-06T14:45:13.800Z,19.07
2022-10-06T14:50:16.406Z,18.94
2022-10-06T14:55:19.048Z,18.83
2022-10-06T15:00:22.915Z,18.69
2022-10-06T15:05:25.551Z,18.58
2022-10-06T15:10:28.155Z,18.43
2022-10-06T15:15:33.808Z,18.32
2022-10-06T15:20:36.509Z,18.21
2022-10-06T15:25:57.653Z,18.11
2022-10-06T15:31:00.403Z,17.95
2022-10-06T15:36:17.009Z,17.85
2022-10-06T15:41:19.770Z,17.74
2022-10-06T15:46:33.126Z,17.62
2022-10-06T15:51:38.397Z,17.52
2022-10-06T15:56:42.321Z,17.41
2022-10-06T16:01:47.462Z,17.30
2022-10-06T16:06:54.191Z,17.18
2022-10-06T16:11:58.272Z,17.04
2022-10-06T16:17:05.483Z,16.95
2022-10-06T16:22:11.239Z,16.82
2022-10-06T16:27:15.352Z,16.72
2022-10-06T16:32:18.538Z,16.61
2022-10-06T16:37:21.337Z,16.50
2022-10-06T16:42:24.633Z,16.44
2022-10-06T16:47:27.289Z,16.38
2022-10-06T16:52:29.890Z,16.33
2022-10-06T16:57:32.587Z,16.31
2022-10-06T17:02:36.960Z,16.27
2022-10-06T17:07:39.846Z,16.23
2022-10-06T17:12:42.693Z,16.18
2022-10-06T17:17:45.532Z,16.05
2022-10-06T17:22:48.792Z,15.93
2022-10-06T17:27:51.447Z,15.78
2022-10-06T17:32:54.331Z,15.63
2022-10-06T17:37:57.079Z,15.47
2022-10-06T17:42:59.705Z,15.36
2022-10-06T17:48:02.796Z,15.22
2022-10-06T17:53:05.436Z,15.08
2022-10-06T17:58:08.555Z,14.98
2022-10-06T18:03:11.379Z,14.91
2022-10-06T18:08:14.131Z,14.85
2022-10-06T18:13:16.765Z,14.83
2022-10-06T18:18:25.187Z,14.76
2022-10-06T18:23:28.250Z,14.69
2022-10-06T18:28:31.005Z,14.56
2022-10-06T18:38:57.928Z,14.39
2022-10-06T18:44:00.711Z,14.29
2022-10-06T18:49:15.815Z,14.19
2022-10-06T18:54:23.908Z,14.10
2022-10-06T18:59:27.940Z,13.97
2022-10-06T19:04:35.757Z,13.86
2022-10-06T19:09:41.512Z,13.79
2022-10-06T19:14:47.973Z,13.74
2022-10-06T19:19:54.987Z,13.70
2022-10-06T19:24:57.700Z,13.65
2022-10-06T19:30:00.406Z,13.60
2022-10-06T19:35:09.220Z,13.54
2022-10-06T19:40:12.910Z,13.45
2022-10-06T19:45:16.625Z,13.39
2022-10-06T19:50:19.545Z,13.28
2022-10-06T19:55:23.821Z,13.22
2022-10-06T20:00:27.232Z,13.13
2022-10-06T20:05:29.924Z,13.11
2022-10-06T20:10:34.648Z,13.08
2022-10-06T20:15:37.485Z,12.98
2022-10-06T20:20:40.222Z,12.93
2022-10-06T20:25:42.841Z,12.89
2022-10-06T20:30:50.137Z,12.81
2022-10-06T20:35:52.851Z,12.76
2022-10-06T20:41:18.051Z,12.72
2022-10-06T20:46:21.547Z,12.62
2022-10-06T20:51:27.728Z,12.55
2022-10-06T20:56:34.190Z,12.48
2022-10-06T21:01:38.281Z,12.48
2022-10-06T21:06:41.872Z,12.47
2022-10-06T21:11:44.640Z,12.43
2022-10-06T21:16:48.447Z,12.39
2022-10-06T21:21:52.195Z,12.33
2022-10-06T21:26:55.040Z,12.24
2022-10-06T21:31:57.667Z,12.22
2022-10-06T21:37:00.264Z,12.18
2022-10-06T21:42:02.954Z,12.10
2022-10-06T21:47:05.672Z,12.05
2022-10-06T21:52:08.766Z,12.03
2022-10-06T21:57:11.510Z,11.98
2022-10-06T22:02:14.057Z,11.94
2022-10-06T22:07:17.101Z,11.88
2022-10-06T22:12:19.730Z,11.82
2022-10-06T22:17:22.360Z,11.76
2022-10-06T22:22:25.003Z,11.69
2022-10-06T22:27:27.615Z,11.64
2022-10-06T22:32:31.517Z,11.58
2022-10-06T22:37:34.176Z,11.49
2022-10-06T22:42:36.819Z,11.46
2022-10-06T22:47:39.449Z,11.43
2022-10-06T22:52:42.137Z,11.44
2022-10-06T22:57:44.978Z,11.42
2022-10-06T23:02:47.750Z,11.41
2022-10-06T23:07:51.460Z,11.38
2022-10-06T23:12:55.626Z,11.35
2022-10-06T23:17:58.233Z,11.28
2022-10-06T23:23:00.851Z,11.17
2022-10-06T23:28:03.606Z,11.07
2022-10-06T23:33:06.315Z,11.06
2022-10-06T23:38:10.655Z,11.05
2022-10-06T23:43:13.450Z,10.97
2022-10-06T23:48:16.514Z,10.95
2022-10-06T23:53:19.158Z,10.92
2022-10-06T23:58:22.713Z,10.88
